createdAt,value
2019-05-12T00:00:03.748Z,1020.52
2019-05-12T00:01:03.727Z,1020.57
2019-05-12T00:02:03.712Z,1020.60
2019-05-12T00:03:03.683Z,1020.60
2019-05-12T00:04:03.657Z,1020.59
2019-05-12T00:05:03.637Z,1020.60
2019-05-12T00:06:03.612Z,1020.65
2019-05-12T00:07:03.590Z,1020.65
2019-05-12T00:08:03.574Z,1020.65
2019-05-12T00:09:03.545Z,1020.70
2019-05-12T00:10:03.518Z,1020.71
2019-05-12T00:11:03.496Z,1020.69
2019-05-12T00:12:03.483Z,1020.70
2019-05-12T00:13:03.467Z,1020.73
2019-05-12T00:14:03.431Z,1020.70
2019-05-12T00:15:03.408Z,1020.73
2019-05-12T00:16:03.395Z,1020.73
2019-05-12T00:17:03.364Z,1020.70
2019-05-12T00:18:03.338Z,1020.74
2019-05-12T00:19:03.318Z,1020.80
2019-05-12T00:20:03.308Z,1020.81
2019-05-12T00:21:03.277Z,1020.76
2019-05-12T00:22:03.257Z,1020.80
2019-05-12T00:23:03.227Z,1020.78
2019-05-12T00:24:03.215Z,1020.80
2019-05-12T00:25:03.181Z,1020.78
2019-05-12T00:26:03.398Z,1020.81
2019-05-12T00:27:03.134Z,1020.81
2019-05-12T00:28:03.121Z,1020.84
2019-05-12T00:29:03.104Z,1020.87
2019-05-12T00:30:03.067Z,1020.85
2019-05-12T00:31:03.045Z,1020.86
2019-05-12T00:32:03.024Z,1020.88
2019-05-12T00:33:03.004Z,1020.87
2019-05-12T00:34:02.978Z,1020.87
2019-05-12T00:35:02.951Z,1020.84
2019-05-12T00:36:02.932Z,1020.88
2019-05-12T00:37:02.914Z,1020.90
2019-05-12T00:38:02.884Z,1020.93
2019-05-12T00:39:02.861Z,1020.93
2019-05-12T00:40:02.842Z,1020.97
2019-05-12T00:41:02.815Z,1021.02
2019-05-12T00:42:02.793Z,1021.02
2019-05-12T00:43:02.772Z,1021.05
2019-05-12T00:44:02.748Z,1021.06
2019-05-12T00:45:02.726Z,1021.09
2019-05-12T00:46:02.703Z,1021.13
2019-05-12T00:47:02.681Z,1021.15
2019-05-12T00:48:02.658Z,1021.19
2019-05-12T00:49:02.637Z,1021.19
2019-05-12T00:50:02.613Z,1021.24
2019-05-12T00:51:02.588Z,1021.26
2019-05-12T00:52:02.568Z,1021.29
2019-05-12T00:53:02.545Z,1021.32
2019-05-12T00:54:02.557Z,1021.35
2019-05-12T00:55:02.510Z,1021.32
2019-05-12T00:56:02.478Z,1021.33
2019-05-12T00:57:02.454Z,1021.35
2019-05-12T00:58:02.432Z,1021.32
2019-05-12T00:59:02.417Z,1021.31
2019-05-12T01:00:02.392Z,1021.31
2019-05-12T01:01:02.363Z,1021.31
2019-05-12T01:02:02.338Z,1021.33
2019-05-12T01:03:02.324Z,1021.32
2019-05-12T01:04:02.295Z,1021.34
2019-05-12T01:05:02.276Z,1021.32
2019-05-12T01:06:02.249Z,1021.35
2019-05-12T01:07:02.238Z,1021.34
2019-05-12T01:08:02.207Z,1021.33
2019-05-12T01:09:02.183Z,1021.35
2019-05-12T01:10:04.843Z,1021.38
2019-05-12T01:11:02.134Z,1021.34
2019-05-12T01:12:02.116Z,1021.30
2019-05-12T01:13:02.095Z,1021.37
2019-05-12T01:14:02.068Z,1021.35
2019-05-12T01:15:02.043Z,1021.34
2019-05-12T01:16:02.019Z,1021.38
2019-05-12T01:17:01.999Z,1021.42
2019-05-12T01:18:01.973Z,1021.42
2019-05-12T01:19:01.952Z,1021.43
2019-05-12T01:20:01.937Z,1021.49
2019-05-12T01:21:01.907Z,1021.45
2019-05-12T01:22:01.883Z,1021.48
2019-05-12T01:23:01.862Z,1021.48
2019-05-12T01:24:03.482Z,1021.50
2019-05-12T01:25:01.816Z,1021.46
2019-05-12T01:26:01.911Z,1021.48
2019-05-12T01:27:01.769Z,1021.48
2019-05-12T01:28:01.747Z,1021.45
2019-05-12T01:29:01.725Z,1021.50
2019-05-12T01:30:01.704Z,1021.47
2019-05-12T01:31:01.677Z,1021.49
2019-05-12T01:32:01.654Z,1021.53
2019-05-12T01:33:01.632Z,1021.55
2019-05-12T01:34:01.611Z,1021.54
2019-05-12T01:35:01.591Z,1021.58
2019-05-12T01:36:01.566Z,1021.62
2019-05-12T01:37:01.541Z,1021.64
2019-05-12T01:38:01.655Z,1021.64
2019-05-12T01:39:01.904Z,1021.67
2019-05-12T01:40:01.479Z,1021.67
2019-05-12T01:41:01.449Z,1021.67
2019-05-12T01:42:01.433Z,1021.68
2019-05-12T01:43:01.405Z,1021.66
2019-05-12T01:44:01.382Z,1021.66
2019-05-12T01:45:01.357Z,1021.66
2019-05-12T01:46:01.334Z,1021.70
2019-05-12T01:47:01.311Z,1021.73
2019-05-12T01:48:01.289Z,1021.75
2019-05-12T01:49:01.266Z,1021.76
2019-05-12T01:50:01.242Z,1021.75
2019-05-12T01:51:01.224Z,1021.75
2019-05-12T01:52:01.196Z,1021.81
2019-05-12T01:53:01.175Z,1021.80
2019-05-12T01:54:11.044Z,1021.85
2019-05-12T01:55:01.125Z,1021.87
2019-05-12T01:56:01.103Z,1021.85
2019-05-12T01:57:01.079Z,1021.89
2019-05-12T01:58:01.057Z,1021.91
2019-05-12T01:59:01.032Z,1021.98
2019-05-12T02:00:01.011Z,1021.97
2019-05-12T02:01:02.920Z,1022.04
2019-05-12T02:02:00.962Z,1022.09
2019-05-12T02:03:00.944Z,1022.09
2019-05-12T02:04:00.922Z,1022.10
2019-05-12T02:05:00.897Z,1022.14
2019-05-12T02:06:00.873Z,1022.13
2019-05-12T02:07:00.848Z,1022.16
2019-05-12T02:08:00.825Z,1022.19
2019-05-12T02:09:00.804Z,1022.19
2019-05-12T02:10:00.779Z,1022.25
2019-05-12T02:11:00.755Z,1022.26
2019-05-12T02:12:00.736Z,1022.27
2019-05-12T02:13:00.712Z,1022.25
2019-05-12T02:14:00.684Z,1022.25
2019-05-12T02:15:00.663Z,1022.28
2019-05-12T02:16:00.642Z,1022.28
2019-05-12T02:17:00.617Z,1022.29
2019-05-12T02:18:00.591Z,1022.27
2019-05-12T02:19:00.567Z,1022.29
2019-05-12T02:20:00.546Z,1022.31
2019-05-12T02:21:00.522Z,1022.33
2019-05-12T02:22:00.506Z,1022.35
2019-05-12T02:23:00.474Z,1022.36
2019-05-12T02:24:00.452Z,1022.33
2019-05-12T02:25:00.435Z,1022.35
2019-05-12T02:26:00.405Z,1022.36
2019-05-12T02:27:00.383Z,1022.35
2019-05-12T02:28:00.368Z,1022.35
2019-05-12T02:29:00.336Z,1022.38
2019-05-12T02:30:00.315Z,1022.42
2019-05-12T02:31:00.290Z,1022.39
2019-05-12T02:32:00.267Z,1022.41
2019-05-12T02:33:00.262Z,1022.43
2019-05-12T02:34:00.263Z,1022.42
2019-05-12T02:35:00.200Z,1022.41
2019-05-12T02:36:00.175Z,1022.43
2019-05-12T02:37:00.152Z,1022.42
2019-05-12T02:38:00.136Z,1022.45
2019-05-12T02:39:00.110Z,1022.43
2019-05-12T02:40:00.085Z,1022.45
2019-05-12T02:41:00.060Z,1022.42
2019-05-12T02:42:00.033Z,1022.48
2019-05-12T02:43:00.011Z,1022.47
2019-05-12T02:43:59.999Z,1022.50
2019-05-12T02:44:59.967Z,1022.53
2019-05-12T02:45:59.937Z,1022.55
2019-05-12T02:46:59.928Z,1022.60
2019-05-12T02:47:59.893Z,1022.64
2019-05-12T02:48:59.874Z,1022.65
2019-05-12T02:49:59.851Z,1022.67
2019-05-12T02:50:59.827Z,1022.78
2019-05-12T02:51:59.803Z,1022.76
2019-05-12T02:52:59.787Z,1022.76
2019-05-12T02:53:59.762Z,1022.79
2019-05-12T02:55:00.923Z,1022.80
2019-05-12T02:55:59.707Z,1022.78
2019-05-12T02:56:59.683Z,1022.79
2019-05-12T02:57:59.658Z,1022.81
2019-05-12T02:58:59.637Z,1022.81
2019-05-12T02:59:59.611Z,1022.83
2019-05-12T03:00:59.588Z,1022.84
2019-05-12T03:01:59.565Z,1022.86
2019-05-12T03:02:59.542Z,1022.83
2019-05-12T03:03:59.526Z,1022.84
2019-05-12T03:04:59.507Z,1022.84
2019-05-12T03:05:59.473Z,1022.83
2019-05-12T03:07:02.178Z,1022.87
2019-05-12T03:07:59.425Z,1022.87
2019-05-12T03:08:59.408Z,1022.91
2019-05-12T03:09:59.378Z,1022.92
2019-05-12T03:10:59.355Z,1022.93
2019-05-12T03:11:59.330Z,1022.93
2019-05-12T03:12:59.309Z,1022.98
2019-05-12T03:13:59.291Z,1023.02
2019-05-12T03:14:59.273Z,1023.04
2019-05-12T03:15:59.239Z,1022.99
2019-05-12T03:16:59.216Z,1023.06
2019-05-12T03:17:59.194Z,1023.04
2019-05-12T03:18:59.163Z,1023.04
2019-05-12T03:19:59.149Z,1023.03
2019-05-12T03:20:59.120Z,1023.04
2019-05-12T03:21:59.096Z,1023.07
2019-05-12T03:22:59.074Z,1023.09
2019-05-12T03:23:59.053Z,1023.11
2019-05-12T03:25:11.290Z,1023.17
2019-05-12T03:25:59.009Z,1023.14
2019-05-12T03:26:58.980Z,1023.16
2019-05-12T03:27:58.964Z,1023.16
2019-05-12T03:28:58.935Z,1023.20
2019-05-12T03:29:58.911Z,1023.18
2019-05-12T03:30:58.886Z,1023.19
2019-05-12T03:31:58.876Z,1023.19
2019-05-12T03:32:58.925Z,1023.23
2019-05-12T03:34:00.409Z,1023.24
2019-05-12T03:34:58.791Z,1023.24
2019-05-12T03:36:00.223Z,1023.24
2019-05-12T03:36:59.656Z,1023.26
2019-05-12T03:37:58.723Z,1023.31
2019-05-12T03:38:58.696Z,1023.32
2019-05-12T03:39:58.678Z,1023.30
2019-05-12T03:40:58.656Z,1023.30
2019-05-12T03:41:58.625Z,1023.32
2019-05-12T03:42:58.612Z,1023.32
2019-05-12T03:43:58.578Z,1023.34
2019-05-12T03:44:58.555Z,1023.37
2019-05-12T03:45:58.534Z,1023.34
2019-05-12T03:46:58.520Z,1023.37
2019-05-12T03:47:58.488Z,1023.36
2019-05-12T03:48:58.463Z,1023.38
2019-05-12T03:49:58.440Z,1023.41
2019-05-12T03:50:58.418Z,1023.41
2019-05-12T03:51:58.395Z,1023.44
2019-05-12T03:52:58.370Z,1023.49
2019-05-12T03:53:58.360Z,1023.50
2019-05-12T03:54:58.320Z,1023.50
2019-05-12T03:55:58.299Z,1023.52
2019-05-12T03:56:58.278Z,1023.54
2019-05-12T03:57:58.254Z,1023.53
2019-05-12T03:58:58.232Z,1023.54
2019-05-12T03:59:58.212Z,1023.51
2019-05-12T04:00:58.180Z,1023.59
2019-05-12T04:01:58.159Z,1023.57
2019-05-12T04:02:58.132Z,1023.55
2019-05-12T04:03:58.121Z,1023.57
2019-05-12T04:04:58.099Z,1023.60
2019-05-12T04:05:58.062Z,1023.66
2019-05-12T04:06:58.039Z,1023.71
2019-05-12T04:07:58.015Z,1023.68
2019-05-12T04:09:00.027Z,1023.74
2019-05-12T04:09:57.969Z,1023.72
2019-05-12T04:10:57.948Z,1023.73
2019-05-12T04:11:57.923Z,1023.75
2019-05-12T04:12:57.901Z,1023.74
2019-05-12T04:13:57.875Z,1023.80
2019-05-12T04:14:57.857Z,1023.82
2019-05-12T04:15:57.831Z,1023.76
2019-05-12T04:16:57.812Z,1023.82
2019-05-12T04:17:57.782Z,1023.85
2019-05-12T04:18:57.770Z,1023.81
2019-05-12T04:19:57.735Z,1023.79
2019-05-12T04:20:57.712Z,1023.82
2019-05-12T04:21:57.689Z,1023.80
2019-05-12T04:22:57.664Z,1023.83
2019-05-12T04:23:57.643Z,1023.84
2019-05-12T04:24:57.627Z,1023.86
2019-05-12T04:26:07.083Z,1023.86
2019-05-12T04:26:57.575Z,1023.92
2019-05-12T04:27:57.549Z,1023.89
2019-05-12T04:28:57.530Z,1023.92
2019-05-12T04:29:57.505Z,1023.90
2019-05-12T04:30:57.484Z,1024.00
2019-05-12T04:31:57.454Z,1023.97
2019-05-12T04:32:57.434Z,1023.96
2019-05-12T04:33:57.415Z,1024.04
2019-05-12T04:34:57.385Z,1024.02
2019-05-12T04:35:57.359Z,1024.04
2019-05-12T04:36:57.342Z,1024.04
2019-05-12T04:37:57.315Z,1024.09
2019-05-12T04:38:57.289Z,1024.14
2019-05-12T04:39:57.267Z,1024.15
2019-05-12T04:40:57.243Z,1024.10
2019-05-12T04:41:57.223Z,1024.12
2019-05-12T04:42:57.197Z,1024.14
2019-05-12T04:43:57.172Z,1024.11
2019-05-12T04:44:57.148Z,1024.13
2019-05-12T04:45:57.143Z,1024.13
2019-05-12T04:46:57.109Z,1024.17
2019-05-12T04:47:57.081Z,1024.14
2019-05-12T04:48:57.065Z,1024.17
2019-05-12T04:49:57.041Z,1024.22
2019-05-12T04:50:57.009Z,1024.24
2019-05-12T04:51:56.986Z,1024.26
2019-05-12T04:52:56.964Z,1024.29
2019-05-12T04:53:56.945Z,1024.33
2019-05-12T04:54:56.916Z,1024.33
2019-05-12T04:56:14.482Z,1024.40
2019-05-12T04:56:56.876Z,1024.40
2019-05-12T04:57:56.846Z,1024.40
2019-05-12T04:58:56.827Z,1024.41
2019-05-12T04:59:56.804Z,1024.47
2019-05-12T05:00:56.779Z,1024.48
2019-05-12T05:01:56.757Z,1024.47
2019-05-12T05:02:56.732Z,1024.46
2019-05-12T05:03:56.710Z,1024.47
2019-05-12T05:04:56.687Z,1024.51
2019-05-12T05:05:56.662Z,1024.54
2019-05-12T05:06:56.640Z,1024.53
2019-05-12T05:07:56.616Z,1024.53
2019-05-12T05:08:56.594Z,1024.62
2019-05-12T05:09:56.569Z,1024.65
2019-05-12T05:10:56.549Z,1024.68
2019-05-12T05:11:56.526Z,1024.73
2019-05-12T05:12:56.502Z,1024.72
2019-05-12T05:13:56.487Z,1024.79
2019-05-12T05:14:56.458Z,1024.80
2019-05-12T05:15:56.433Z,1024.84
2019-05-12T05:16:56.409Z,1024.86
2019-05-12T05:17:56.384Z,1024.89
2019-05-12T05:18:56.359Z,1024.90
2019-05-12T05:19:56.338Z,1024.88
2019-05-12T05:20:56.318Z,1024.91
2019-05-12T05:21:56.290Z,1024.89
2019-05-12T05:22:56.269Z,1024.95
2019-05-12T05:23:56.251Z,1024.92
2019-05-12T05:24:56.226Z,1024.98
2019-05-12T05:25:56.200Z,1025.02
2019-05-12T05:26:56.178Z,1025.06
2019-05-12T05:27:56.155Z,1025.03
2019-05-12T05:28:56.131Z,1025.04
2019-05-12T05:29:56.107Z,1025.05
2019-05-12T05:30:56.085Z,1025.10
2019-05-12T05:31:56.062Z,1025.08
2019-05-12T05:32:56.040Z,1025.11
2019-05-12T05:33:56.017Z,1025.10
2019-05-12T05:34:57.903Z,1025.11
2019-05-12T05:35:55.977Z,1025.11
2019-05-12T05:37:01.244Z,1025.16
2019-05-12T05:37:55.923Z,1025.19
2019-05-12T05:38:57.321Z,1025.19
2019-05-12T05:39:55.879Z,1025.21
2019-05-12T05:40:59.736Z,1025.28
2019-05-12T05:41:55.837Z,1025.22
2019-05-12T05:42:55.809Z,1025.25
2019-05-12T05:43:58.378Z,1025.24
2019-05-12T05:44:55.764Z,1025.22
2019-05-12T05:46:02.516Z,1025.25
2019-05-12T05:46:56.793Z,1025.28
2019-05-12T05:47:59.532Z,1025.25
2019-05-12T05:48:55.678Z,1025.34
2019-05-12T05:49:55.649Z,1025.35
2019-05-12T05:50:59.994Z,1025.34
2019-05-12T05:51:57.603Z,1025.33
2019-05-12T05:52:55.579Z,1025.30
2019-05-12T05:53:55.556Z,1025.31
2019-05-12T05:54:55.543Z,1025.31
2019-05-12T05:56:00.084Z,1025.31
2019-05-12T05:56:59.620Z,1025.32
2019-05-12T05:57:59.870Z,1025.35
2019-05-12T05:58:55.454Z,1025.36
2019-05-12T05:59:55.419Z,1025.32
2019-05-12T06:01:03.019Z,1025.34
2019-05-12T06:01:55.373Z,1025.35
2019-05-12T06:02:55.353Z,1025.36
2019-05-12T06:03:58.401Z,1025.39
2019-05-12T06:04:56.418Z,1025.43
2019-05-12T06:05:55.280Z,1025.41
2019-05-12T06:06:56.008Z,1025.45
2019-05-12T06:07:55.236Z,1025.43
2019-05-12T06:08:55.214Z,1025.44
2019-05-12T06:09:55.189Z,1025.47
2019-05-12T06:10:55.176Z,1025.45
2019-05-12T06:11:59.166Z,1025.44
2019-05-12T06:12:55.121Z,1025.46
2019-05-12T06:13:55.099Z,1025.45
2019-05-12T06:14:59.759Z,1025.46
2019-05-12T06:15:55.052Z,1025.49
2019-05-12T06:16:55.027Z,1025.53
2019-05-12T06:17:55.007Z,1025.57
2019-05-12T06:18:54.983Z,1025.56
2019-05-12T06:19:54.964Z,1025.61
2019-05-12T06:20:54.941Z,1025.62
2019-05-12T06:21:54.912Z,1025.66
2019-05-12T06:22:57.617Z,1025.67
2019-05-12T06:23:54.869Z,1025.70
2019-05-12T06:24:58.903Z,1025.70
2019-05-12T06:25:55.029Z,1025.73
2019-05-12T06:27:00.398Z,1025.74
2019-05-12T06:27:59.973Z,1025.68
2019-05-12T06:28:57.702Z,1025.69
2019-05-12T06:30:01.003Z,1025.69
2019-05-12T06:30:57.947Z,1025.71
2019-05-12T06:31:54.689Z,1025.73
2019-05-12T06:32:54.734Z,1025.73
2019-05-12T06:33:54.636Z,1025.70
2019-05-12T06:34:57.024Z,1025.71
2019-05-12T06:35:54.591Z,1025.75
2019-05-12T06:36:57.201Z,1025.80
2019-05-12T06:38:00.090Z,1025.84
2019-05-12T06:38:54.537Z,1025.81
2019-05-12T06:39:56.465Z,1025.86
2019-05-12T06:40:54.519Z,1025.85
2019-05-12T06:41:57.186Z,1025.89
2019-05-12T06:42:57.170Z,1025.89
2019-05-12T06:43:54.409Z,1025.97
2019-05-12T06:44:57.143Z,1025.94
2019-05-12T06:45:54.517Z,1026.01
2019-05-12T06:47:02.435Z,1026.00
2019-05-12T06:47:56.130Z,1026.07
2019-05-12T06:48:54.496Z,1026.07
2019-05-12T06:49:58.024Z,1026.08
2019-05-12T06:50:54.248Z,1026.07
2019-05-12T06:52:01.819Z,1026.06
2019-05-12T06:52:54.205Z,1026.06
2019-05-12T06:53:54.180Z,1026.10
2019-05-12T06:54:56.556Z,1026.17
2019-05-12T06:55:54.161Z,1026.11
2019-05-12T06:56:57.689Z,1026.17
2019-05-12T06:57:54.098Z,1026.17
2019-05-12T06:58:54.065Z,1026.18
2019-05-12T06:59:55.178Z,1026.16
2019-05-12T07:00:54.122Z,1026.15
2019-05-12T07:01:58.776Z,1026.17
2019-05-12T07:02:55.322Z,1026.16
2019-05-12T07:03:53.961Z,1026.17
2019-05-12T07:04:59.016Z,1026.15
2019-05-12T07:05:53.914Z,1026.15
2019-05-12T07:06:56.075Z,1026.16
2019-05-12T07:07:53.867Z,1026.22
2019-05-12T07:09:03.406Z,1026.18
2019-05-12T07:09:57.063Z,1026.26
2019-05-12T07:11:01.893Z,1026.21
2019-05-12T07:12:02.831Z,1026.21
2019-05-12T07:13:01.466Z,1026.21
2019-05-12T07:14:02.135Z,1026.22
2019-05-12T07:14:55.622Z,1026.27
2019-05-12T07:15:54.444Z,1026.28
2019-05-12T07:17:01.559Z,1026.31
2019-05-12T07:17:55.779Z,1026.34
2019-05-12T07:18:54.198Z,1026.30
2019-05-12T07:19:56.972Z,1026.42
2019-05-12T07:20:53.839Z,1026.38
2019-05-12T07:21:58.731Z,1026.39
2019-05-12T07:22:54.838Z,1026.41
2019-05-12T07:23:53.602Z,1026.40
2019-05-12T07:24:54.751Z,1026.45
2019-05-12T07:25:55.006Z,1026.43
2019-05-12T07:27:02.712Z,1026.38
2019-05-12T07:28:00.072Z,1026.38
2019-05-12T07:28:54.091Z,1026.37
2019-05-12T07:29:54.195Z,1026.32
2019-05-12T07:30:54.545Z,1026.37
2019-05-12T07:31:53.768Z,1026.33
2019-05-12T07:32:59.724Z,1026.39
2019-05-12T07:33:54.201Z,1026.39
2019-05-12T07:34:54.340Z,1026.43
2019-05-12T07:36:01.071Z,1026.42
2019-05-12T07:36:53.813Z,1026.39
2019-05-12T07:37:53.911Z,1026.34
2019-05-12T07:38:58.095Z,1026.35
2019-05-12T07:39:53.859Z,1026.36
2019-05-12T07:40:53.649Z,1026.36
2019-05-12T07:41:54.927Z,1026.38
2019-05-12T07:42:54.378Z,1026.38
2019-05-12T07:43:56.769Z,1026.39
2019-05-12T07:44:54.373Z,1026.44
2019-05-12T07:46:01.838Z,1026.40
2019-05-12T07:46:54.062Z,1026.40
2019-05-12T07:47:54.138Z,1026.42
2019-05-12T07:48:54.247Z,1026.45
2019-05-12T07:49:53.801Z,1026.40
2019-05-12T07:50:56.369Z,1026.38
2019-05-12T07:51:54.228Z,1026.39
2019-05-12T07:52:54.286Z,1026.34
2019-05-12T07:53:57.225Z,1026.37
2019-05-12T07:54:55.898Z,1026.43
2019-05-12T07:55:53.274Z,1026.47
2019-05-12T07:56:53.978Z,1026.51
2019-05-12T07:57:58.360Z,1026.50
2019-05-12T07:58:56.516Z,1026.55
2019-05-12T07:59:54.130Z,1026.56
2019-05-12T08:00:53.840Z,1026.52
2019-05-12T08:01:54.948Z,1026.50
2019-05-12T08:02:54.043Z,1026.60
2019-05-12T08:03:57.309Z,1026.58
2019-05-12T08:04:54.170Z,1026.63
2019-05-12T08:05:57.410Z,1026.51
2019-05-12T08:06:53.835Z,1026.56
2019-05-12T08:07:53.568Z,1026.54
2019-05-12T08:08:58.093Z,1026.52
2019-05-12T08:09:53.649Z,1026.61
2019-05-12T08:10:55.857Z,1026.58
2019-05-12T08:11:54.092Z,1026.59
2019-05-12T08:12:59.373Z,1026.60
2019-05-12T08:13:54.223Z,1026.68
2019-05-12T08:14:54.165Z,1026.63
2019-05-12T08:15:55.634Z,1026.62
2019-05-12T08:16:54.268Z,1026.64
2019-05-12T08:17:57.714Z,1026.60
2019-05-12T08:18:53.503Z,1026.66
2019-05-12T08:19:53.625Z,1026.64
2019-05-12T08:20:53.893Z,1026.79
2019-05-12T08:21:53.709Z,1026.62
2019-05-12T08:22:54.163Z,1026.65
2019-05-12T08:23:53.403Z,1026.64
2019-05-12T08:24:53.779Z,1026.63
2019-05-12T08:25:54.040Z,1026.59
2019-05-12T08:26:59.547Z,1026.60
2019-05-12T08:28:04.138Z,1026.66
2019-05-12T08:28:53.556Z,1026.76
2019-05-12T08:30:00.798Z,1026.79
2019-05-12T08:30:54.670Z,1026.75
2019-05-12T08:31:54.621Z,1026.79
2019-05-12T08:32:56.360Z,1026.78
2019-05-12T08:33:53.829Z,1026.79
2019-05-12T08:34:54.088Z,1026.81
2019-05-12T08:35:51.907Z,1026.79
2019-05-12T08:36:56.547Z,1026.79
2019-05-12T08:37:54.315Z,1026.76
2019-05-12T08:38:53.637Z,1026.75
2019-05-12T08:39:53.273Z,1026.78
2019-05-12T08:40:54.316Z,1026.86
2019-05-12T08:41:53.535Z,1026.80
2019-05-12T08:42:53.932Z,1026.73
2019-05-12T08:43:57.897Z,1026.76
2019-05-12T08:44:54.120Z,1026.72
2019-05-12T08:45:53.623Z,1026.88
2019-05-12T08:46:55.799Z,1027.01
2019-05-12T08:47:51.656Z,1026.92
2019-05-12T08:48:57.907Z,1026.86
2019-05-12T08:49:58.364Z,1026.78
2019-05-12T08:50:51.587Z,1026.85
2019-05-12T08:51:55.821Z,1026.80
2019-05-12T08:52:53.765Z,1026.86
2019-05-12T08:53:53.899Z,1026.80
2019-05-12T08:54:53.618Z,1026.82
2019-05-12T08:55:53.753Z,1026.83
2019-05-12T08:56:59.327Z,1026.88
2019-05-12T08:57:51.431Z,1026.80
2019-05-12T08:58:54.314Z,1026.80
2019-05-12T08:59:54.673Z,1026.96
2019-05-12T09:00:51.384Z,1027.00
2019-05-12T09:01:53.850Z,1026.99
2019-05-12T09:02:51.326Z,1026.94
2019-05-12T09:03:53.214Z,1026.87
2019-05-12T09:04:55.456Z,1026.87
2019-05-12T09:05:53.535Z,1026.94
2019-05-12T09:06:56.685Z,1027.09
2019-05-12T09:07:51.229Z,1027.12
2019-05-12T09:08:51.207Z,1027.09
2019-05-12T09:09:53.255Z,1027.10
2019-05-12T09:10:54.727Z,1027.01
2019-05-12T09:11:51.130Z,1027.05
2019-05-12T09:12:51.113Z,1027.13
2019-05-12T09:13:52.760Z,1027.16
2019-05-12T09:14:51.068Z,1027.07
2019-05-12T09:15:51.046Z,1026.98
2019-05-12T09:16:53.643Z,1027.02
2019-05-12T09:17:56.525Z,1027.04
2019-05-12T09:18:50.988Z,1027.09
2019-05-12T09:19:54.978Z,1027.14
2019-05-12T09:20:53.473Z,1027.15
2019-05-12T09:21:50.926Z,1027.13
2019-05-12T09:22:58.014Z,1027.08
2019-05-12T09:23:53.989Z,1027.21
2019-05-12T09:24:53.233Z,1027.19
2019-05-12T09:25:50.831Z,1027.13
2019-05-12T09:26:50.806Z,1027.18
2019-05-12T09:27:50.786Z,1027.17
2019-05-12T09:28:50.766Z,1027.18
2019-05-12T09:29:50.751Z,1027.15
2019-05-12T09:30:50.733Z,1027.19
2019-05-12T09:31:50.739Z,1027.19
2019-05-12T09:32:53.979Z,1027.13
2019-05-12T09:33:50.658Z,1027.14
2019-05-12T09:34:52.847Z,1027.10
2019-05-12T09:35:50.626Z,1027.11
2019-05-12T09:36:51.897Z,1027.10
2019-05-12T09:37:50.584Z,1027.11
2019-05-12T09:38:53.644Z,1027.12
2019-05-12T09:39:51.843Z,1027.16
2019-05-12T09:40:52.814Z,1027.17
2019-05-12T09:41:52.759Z,1027.16
2019-05-12T09:42:50.481Z,1027.13
2019-05-12T09:43:50.658Z,1027.07
2019-05-12T09:44:50.429Z,1027.12
2019-05-12T09:45:54.005Z,1027.08
2019-05-12T09:46:50.385Z,1027.20
2019-05-12T09:47:50.364Z,1027.16
2019-05-12T09:48:52.348Z,1027.14
2019-05-12T09:49:50.335Z,1027.18
2019-05-12T09:50:51.491Z,1027.17
2019-05-12T09:51:50.281Z,1027.10
2019-05-12T09:52:54.980Z,1027.17
2019-05-12T09:53:51.123Z,1027.11
2019-05-12T09:54:50.222Z,1027.17
2019-05-12T09:55:50.200Z,1027.19
2019-05-12T09:56:55.393Z,1027.16
2019-05-12T09:57:50.166Z,1027.07
2019-05-12T09:58:59.086Z,1027.11
2019-05-12T09:59:57.278Z,1027.12
2019-05-12T10:00:50.095Z,1027.15
2019-05-12T10:01:50.075Z,1027.27
2019-05-12T10:02:51.211Z,1027.31
2019-05-12T10:03:50.041Z,1027.28
2019-05-12T10:04:50.282Z,1027.30
2019-05-12T10:05:49.995Z,1027.34
2019-05-12T10:06:49.974Z,1027.35
2019-05-12T10:07:49.950Z,1027.34
2019-05-12T10:08:49.930Z,1027.32
2019-05-12T10:09:55.091Z,1027.29
2019-05-12T10:10:49.894Z,1027.32
2019-05-12T10:11:53.911Z,1027.33
2019-05-12T10:12:50.662Z,1027.33
2019-05-12T10:13:49.832Z,1027.18
2019-05-12T10:14:49.812Z,1027.18
2019-05-12T10:15:49.786Z,1027.26
2019-05-12T10:16:49.987Z,1027.15
2019-05-12T10:17:49.746Z,1027.35
2019-05-12T10:18:51.459Z,1027.21
2019-05-12T10:19:56.201Z,1027.37
2019-05-12T10:20:49.695Z,1027.40
2019-05-12T10:21:57.812Z,1027.38
2019-05-12T10:22:49.644Z,1027.42
2019-05-12T10:23:51.439Z,1027.24
2019-05-12T10:24:55.946Z,1027.28
2019-05-12T10:25:49.582Z,1027.37
2019-05-12T10:26:50.707Z,1027.25
2019-05-12T10:27:49.558Z,1027.31
2019-05-12T10:28:52.474Z,1027.22
2019-05-12T10:29:49.514Z,1027.24
2019-05-12T10:30:55.219Z,1027.32
2019-05-12T10:31:49.476Z,1027.26
2019-05-12T10:32:49.448Z,1027.45
2019-05-12T10:33:54.869Z,1027.38
2019-05-12T10:34:51.123Z,1027.41
2019-05-12T10:35:49.385Z,1027.43
2019-05-12T10:36:49.394Z,1027.37
2019-05-12T10:37:49.344Z,1027.38
2019-05-12T10:38:49.322Z,1027.32
2019-05-12T10:39:49.326Z,1027.42
2019-05-12T10:40:49.287Z,1027.48
2019-05-12T10:41:49.265Z,1027.44
2019-05-12T10:42:49.672Z,1027.51
2019-05-12T10:43:56.068Z,1027.44
2019-05-12T10:44:49.203Z,1027.47
2019-05-12T10:45:49.181Z,1027.46
2019-05-12T10:46:49.160Z,1027.46
2019-05-12T10:47:49.143Z,1027.51
2019-05-12T10:48:49.117Z,1027.51
2019-05-12T10:49:49.103Z,1027.28
2019-05-12T10:50:49.092Z,1027.37
2019-05-12T10:51:49.064Z,1027.30
2019-05-12T10:52:49.054Z,1027.31
2019-05-12T10:53:56.783Z,1027.42
2019-05-12T10:54:48.996Z,1027.47
2019-05-12T10:55:48.980Z,1027.37
2019-05-12T10:56:48.956Z,1027.36
2019-05-12T10:57:52.928Z,1027.42
2019-05-12T10:58:48.918Z,1027.57
2019-05-12T10:59:48.914Z,1027.56
2019-05-12T11:00:48.876Z,1027.54
2019-05-12T11:01:49.255Z,1027.57
2019-05-12T11:02:48.834Z,1027.54
2019-05-12T11:03:50.748Z,1027.41
2019-05-12T11:04:48.794Z,1027.41
2019-05-12T11:05:48.781Z,1027.37
2019-05-12T11:06:48.757Z,1027.27
2019-05-12T11:07:48.738Z,1027.35
2019-05-12T11:08:51.258Z,1027.36
2019-05-12T11:09:48.703Z,1027.36
2019-05-12T11:10:50.419Z,1027.34
2019-05-12T11:11:48.647Z,1027.51
2019-05-12T11:12:48.631Z,1027.52
2019-05-12T11:13:49.975Z,1027.52
2019-05-12T11:14:48.601Z,1027.49
2019-05-12T11:15:49.773Z,1027.54
2019-05-12T11:16:48.554Z,1027.51
2019-05-12T11:17:49.819Z,1027.55
2019-05-12T11:18:48.514Z,1027.35
2019-05-12T11:19:51.346Z,1027.55
2019-05-12T11:20:48.474Z,1027.51
2019-05-12T11:21:48.445Z,1027.54
2019-05-12T11:22:48.431Z,1027.48
2019-05-12T11:23:48.408Z,1027.47
2019-05-12T11:24:48.396Z,1027.50
2019-05-12T11:25:48.369Z,1027.54
2019-05-12T11:26:48.354Z,1027.52
2019-05-12T11:27:48.330Z,1027.54
2019-05-12T11:28:48.321Z,1027.49
2019-05-12T11:29:49.592Z,1027.49
2019-05-12T11:30:48.265Z,1027.44
2019-05-12T11:31:48.255Z,1027.45
2019-05-12T11:32:48.237Z,1027.45
2019-05-12T11:33:48.215Z,1027.47
2019-05-12T11:34:48.186Z,1027.43
2019-05-12T11:35:48.175Z,1027.47
2019-05-12T11:36:48.157Z,1027.53
2019-05-12T11:37:48.126Z,1027.45
2019-05-12T11:38:48.110Z,1027.50
2019-05-12T11:39:48.090Z,1027.46
2019-05-12T11:40:48.071Z,1027.48
2019-05-12T11:41:48.065Z,1027.53
2019-05-12T11:42:58.990Z,1027.50
2019-05-12T11:43:48.013Z,1027.53
2019-05-12T11:44:47.999Z,1027.55
2019-05-12T11:45:47.990Z,1027.55
2019-05-12T11:46:47.958Z,1027.54
2019-05-12T11:47:47.937Z,1027.54
2019-05-12T11:48:50.288Z,1027.57
2019-05-12T11:49:47.894Z,1027.45
2019-05-12T11:50:51.284Z,1027.42
2019-05-12T11:51:47.852Z,1027.37
2019-05-12T11:52:51.019Z,1027.41
2019-05-12T11:53:47.816Z,1027.42
2019-05-12T11:54:51.167Z,1027.41
2019-05-12T11:55:47.776Z,1027.60
2019-05-12T11:56:50.361Z,1027.57
2019-05-12T11:57:47.734Z,1027.58
2019-05-12T11:58:51.450Z,1027.58
2019-05-12T12:00:00.898Z,1027.61
2019-05-12T12:00:47.695Z,1027.57
2019-05-12T12:01:49.818Z,1027.51
2019-05-12T12:02:47.636Z,1027.59
2019-05-12T12:03:47.617Z,1027.56
2019-05-12T12:04:47.604Z,1027.53